Terminal Aerodrome Forecast
Issued by NWS

Current Version | Previous Version | Graphics & Text | Print | Product List | Glossary On
Versions: 1 2 3 4 5 6 7 8 9 10 11 12 13 14 15 16 17 18 19 20 21 22 23 24 25 26 27 28 29 30 31 32 33 34 35
000
FTUS41 KILN 180800 AAA
TAFLUK
TAF AMD
KLUK 180859Z 1809/1906 00000KT P6SM SCT250
      TEMPO 1809/1812 5SM BR
     FM181500 06008KT P6SM SCT050
     FM182300 07010KT P6SM SCT250=

USA.gov is the U.S. government's official web portal to all federal, state and local government web resources and services.